createdAt,value
2019-02-04T04:01:07.539Z,999.58
2019-02-04T04:02:07.738Z,999.54
2019-02-04T04:03:07.989Z,999.54
2019-02-04T04:04:08.014Z,999.57
2019-02-04T04:05:08.193Z,999.55
2019-02-04T04:06:08.333Z,999.53
2019-02-04T04:07:08.505Z,999.61
2019-02-04T04:08:08.622Z,999.60
2019-02-04T04:09:08.827Z,999.61
2019-02-04T04:10:08.898Z,999.64
2019-02-04T04:11:09.168Z,999.73
2019-02-04T04:12:09.268Z,999.74
2019-02-04T04:13:09.467Z,999.74
2019-02-04T04:14:09.559Z,999.79
2019-02-04T04:15:09.682Z,999.74
2019-02-04T04:16:09.870Z,999.66
2019-02-04T04:17:10.059Z,999.74
2019-02-04T04:18:16.126Z,999.74
2019-02-04T04:19:10.319Z,999.77
2019-02-04T04:20:10.519Z,999.76
2019-02-04T04:21:10.706Z,999.77
2019-02-04T04:22:10.778Z,999.74
2019-02-04T04:23:10.988Z,999.73
2019-02-04T04:24:11.170Z,999.73
2019-02-04T04:25:11.340Z,999.74
2019-02-04T04:26:11.486Z,999.74
2019-02-04T04:27:11.624Z,999.77
2019-02-04T04:28:11.819Z,999.77
2019-02-04T04:29:12.024Z,999.79
2019-02-04T04:30:12.086Z,999.77
2019-02-04T04:31:12.273Z,999.78
2019-02-04T04:32:12.403Z,999.76
2019-02-04T04:33:12.615Z,999.81
2019-02-04T04:34:12.732Z,999.82
2019-02-04T04:35:12.909Z,999.80
2019-02-04T04:36:13.067Z,999.78
2019-02-04T04:37:13.183Z,999.80
2019-02-04T04:38:13.344Z,999.78
2019-02-04T04:39:13.499Z,999.77
2019-02-04T04:40:13.675Z,999.77
2019-02-04T04:41:13.893Z,999.81
2019-02-04T04:42:13.959Z,999.72
2019-02-04T04:43:14.120Z,999.73
2019-02-04T04:44:14.306Z,999.71
2019-02-04T04:45:14.464Z,999.80
2019-02-04T04:46:14.647Z,999.77
2019-02-04T04:47:14.754Z,999.78
2019-02-04T04:48:26.020Z,999.74
2019-02-04T04:49:15.125Z,999.81
2019-02-04T04:50:15.272Z,999.76
2019-02-04T04:51:15.412Z,999.74
2019-02-04T04:52:15.601Z,999.76
2019-02-04T04:53:15.712Z,999.74
2019-02-04T04:54:15.898Z,999.83
2019-02-04T04:55:16.016Z,999.76
2019-02-04T04:56:16.208Z,999.85
2019-02-04T04:57:16.361Z,999.81
2019-02-04T04:58:16.573Z,999.82
2019-02-04T04:59:16.748Z,999.84
2019-02-04T05:00:16.870Z,999.87
2019-02-04T05:01:17.061Z,999.88
2019-02-04T05:02:17.257Z,999.88
2019-02-04T05:03:17.323Z,999.87
2019-02-04T05:04:17.456Z,999.84
2019-02-04T05:05:17.658Z,999.88
2019-02-04T05:06:17.823Z,999.92
2019-02-04T05:07:17.888Z,999.90
2019-02-04T05:08:18.085Z,999.87
2019-02-04T05:09:18.299Z,999.90
2019-02-04T05:10:18.365Z,999.88
2019-02-04T05:11:18.533Z,999.87
2019-02-04T05:12:18.709Z,999.90
2019-02-04T05:13:18.865Z,999.87
2019-02-04T05:14:19.045Z,999.86
2019-02-04T05:15:19.186Z,999.87
2019-02-04T05:16:19.400Z,999.89
2019-02-04T05:17:19.546Z,999.91
2019-02-04T05:18:19.687Z,999.91
2019-02-04T05:19:19.853Z,999.96
2019-02-04T05:20:20.015Z,999.95
2019-02-04T05:21:20.150Z,999.99
2019-02-04T05:22:20.323Z,999.95
2019-02-04T05:23:20.413Z,999.97
2019-02-04T05:24:20.577Z,1000.00
2019-02-04T05:25:20.751Z,1000.00
2019-02-04T05:26:20.898Z,1000.00
2019-02-04T05:27:21.097Z,999.93
2019-02-04T05:28:21.182Z,999.92
2019-02-04T05:29:21.431Z,999.95
2019-02-04T05:30:21.607Z,999.90
2019-02-04T05:31:21.703Z,999.88
2019-02-04T05:32:21.844Z,999.93
2019-02-04T05:33:22.004Z,999.90
2019-02-04T05:34:22.187Z,999.91
2019-02-04T05:35:22.296Z,999.91
2019-02-04T05:36:22.515Z,999.94
2019-02-04T05:37:22.695Z,999.98
2019-02-04T05:38:22.821Z,999.95
2019-02-04T05:39:22.985Z,1000.01
2019-02-04T05:40:23.155Z,1000.03
2019-02-04T05:41:23.328Z,1000.01
2019-02-04T05:42:23.463Z,1000.01
2019-02-04T05:43:23.597Z,999.99
2019-02-04T05:44:23.776Z,1000.00
2019-02-04T05:45:24.024Z,999.97
2019-02-04T05:46:24.200Z,999.98
2019-02-04T05:47:24.307Z,1000.00
2019-02-04T05:48:24.419Z,1000.00
2019-02-04T05:49:24.633Z,1000.02
2019-02-04T05:50:24.767Z,1000.03
2019-02-04T05:51:24.942Z,1000.00
2019-02-04T05:52:25.099Z,999.99
2019-02-04T05:53:25.314Z,1000.00
2019-02-04T05:54:25.381Z,1000.02
2019-02-04T05:55:25.618Z,1000.09
2019-02-04T05:56:25.714Z,1000.08
2019-02-04T05:57:25.846Z,1000.14
2019-02-04T05:58:26.039Z,1000.14
2019-02-04T05:59:26.215Z,1000.16
2019-02-04T06:00:26.418Z,1000.06
2019-02-04T06:01:26.459Z,1000.06
2019-02-04T06:02:26.638Z,1000.08
2019-02-04T06:03:28.278Z,1000.08
2019-02-04T06:04:27.050Z,1000.07
2019-02-04T06:05:27.188Z,1000.12
2019-02-04T06:06:27.320Z,1000.13
2019-02-04T06:07:27.506Z,1000.12
2019-02-04T06:08:27.625Z,1000.08
2019-02-04T06:09:27.804Z,1000.11
2019-02-04T06:10:27.949Z,1000.13
2019-02-04T06:11:28.072Z,1000.10
2019-02-04T06:12:28.293Z,1000.16
2019-02-04T06:13:28.442Z,1000.18
2019-02-04T06:14:29.406Z,1000.22
2019-02-04T06:15:28.795Z,1000.18
2019-02-04T06:16:28.930Z,1000.15
2019-02-04T06:17:29.078Z,1000.15
2019-02-04T06:18:29.254Z,1000.18
2019-02-04T06:19:29.465Z,1000.19
2019-02-04T06:20:29.543Z,1000.20
2019-02-04T06:21:29.786Z,1000.18
2019-02-04T06:22:29.888Z,1000.20
2019-02-04T06:23:30.072Z,1000.21
2019-02-04T06:24:30.216Z,1000.18
2019-02-04T06:25:30.389Z,1000.14
2019-02-04T06:26:30.528Z,1000.16
2019-02-04T06:27:30.661Z,1000.14
2019-02-04T06:28:30.799Z,1000.11
2019-02-04T06:29:30.984Z,1000.17
2019-02-04T06:30:31.160Z,1000.17
2019-02-04T06:31:31.244Z,1000.18
2019-02-04T06:32:31.449Z,1000.16
2019-02-04T06:33:31.529Z,1000.12
2019-02-04T06:34:31.771Z,1000.17
2019-02-04T06:35:31.865Z,1000.21
2019-02-04T06:36:32.117Z,1000.22
2019-02-04T06:37:32.228Z,1000.24
2019-02-04T06:38:32.341Z,1000.26
2019-02-04T06:39:32.524Z,1000.27
2019-02-04T06:40:32.662Z,1000.28
2019-02-04T06:41:32.808Z,1000.31
2019-02-04T06:42:32.994Z,1000.24
2019-02-04T06:43:33.132Z,1000.28
2019-02-04T06:44:33.229Z,1000.29
2019-02-04T06:45:33.434Z,1000.29
2019-02-04T06:46:33.533Z,1000.28
2019-02-04T06:47:33.749Z,1000.31
2019-02-04T06:48:34.385Z,1000.31
2019-02-04T06:49:34.031Z,1000.34
2019-02-04T06:50:34.199Z,1000.37
2019-02-04T06:51:34.365Z,1000.33
2019-02-04T06:52:34.494Z,1000.37
2019-02-04T06:53:35.377Z,1000.45
2019-02-04T06:54:34.760Z,1000.44
2019-02-04T06:55:34.921Z,1000.42
2019-02-04T06:56:36.023Z,1000.45
2019-02-04T06:57:35.238Z,1000.39
2019-02-04T06:58:35.462Z,1000.44
2019-02-04T06:59:35.538Z,1000.49
2019-02-04T07:00:35.791Z,1000.49
2019-02-04T07:01:35.950Z,1000.49
2019-02-04T07:02:36.131Z,1000.49
2019-02-04T07:03:36.283Z,1000.48
2019-02-04T07:04:36.502Z,1000.48
2019-02-04T07:05:43.483Z,1000.45
2019-02-04T07:06:36.864Z,1000.50
2019-02-04T07:07:36.944Z,1000.52
2019-02-04T07:08:37.180Z,1000.50
2019-02-04T07:09:37.333Z,1000.51
2019-02-04T07:10:37.433Z,1000.51
2019-02-04T07:11:37.589Z,1000.54
2019-02-04T07:12:37.783Z,1000.54
2019-02-04T07:13:42.126Z,1000.57
2019-02-04T07:14:38.073Z,1000.60
2019-02-04T07:15:38.305Z,1000.55
2019-02-04T07:16:38.489Z,1000.61
2019-02-04T07:17:38.610Z,1000.55
2019-02-04T07:18:38.743Z,1000.58
2019-02-04T07:19:38.964Z,1000.62
2019-02-04T07:20:39.217Z,1000.59
2019-02-04T07:21:39.205Z,1000.59
2019-02-04T07:22:39.432Z,1000.60
2019-02-04T07:23:39.493Z,1000.58
2019-02-04T07:24:42.936Z,1000.61
2019-02-04T07:25:39.824Z,1000.57
2019-02-04T07:26:39.891Z,1000.56
2019-02-04T07:27:40.160Z,1000.57
2019-02-04T07:28:40.771Z,1000.52
2019-02-04T07:29:40.592Z,1000.56
2019-02-04T07:30:40.630Z,1000.57
2019-02-04T07:31:40.699Z,1000.58
2019-02-04T07:32:40.960Z,1000.59
2019-02-04T07:33:41.072Z,1000.64
2019-02-04T07:34:41.151Z,1000.60
2019-02-04T07:35:41.472Z,1000.67
2019-02-04T07:36:41.503Z,1000.64
2019-02-04T07:37:42.445Z,1000.68
2019-02-04T07:38:41.851Z,1000.63
2019-02-04T07:39:41.954Z,1000.56
2019-02-04T07:40:42.080Z,1000.53
2019-02-04T07:41:43.781Z,1000.57
2019-02-04T07:42:42.439Z,1000.53
2019-02-04T07:43:42.737Z,1000.53
2019-02-04T07:44:43.911Z,1000.54
2019-02-04T07:45:43.761Z,1000.52
2019-02-04T07:46:43.096Z,1000.52
2019-02-04T07:47:43.236Z,1000.59
2019-02-04T07:48:43.443Z,1000.61
2019-02-04T07:49:43.581Z,1000.57
2019-02-04T07:50:43.846Z,1000.63
2019-02-04T07:51:43.926Z,1000.61
2019-02-04T07:52:44.020Z,1000.62
2019-02-04T07:53:44.123Z,1000.64
2019-02-04T07:54:44.366Z,1000.64
2019-02-04T07:55:44.604Z,1000.65
2019-02-04T07:56:44.687Z,1000.64
2019-02-04T07:57:44.827Z,1000.61
2019-02-04T07:58:45.040Z,1000.60
2019-02-04T07:59:45.184Z,1000.62
2019-02-04T08:00:45.217Z,1000.62
2019-02-04T08:01:45.364Z,1000.64
2019-02-04T08:02:45.586Z,1000.62
2019-02-04T08:03:45.771Z,1000.61
2019-02-04T08:04:45.923Z,1000.65
2019-02-04T08:05:46.122Z,1000.68
2019-02-04T08:06:46.225Z,1000.63
2019-02-04T08:07:46.419Z,1000.63
2019-02-04T08:08:46.637Z,1000.66
2019-02-04T08:09:46.637Z,1000.67
2019-02-04T08:10:46.756Z,1000.67
2019-02-04T08:11:46.985Z,1000.70
2019-02-04T08:12:47.163Z,1000.72
2019-02-04T08:13:48.337Z,1000.70
2019-02-04T08:14:47.662Z,1000.69
2019-02-04T08:15:47.869Z,1000.74
2019-02-04T08:16:48.028Z,1000.70
2019-02-04T08:17:48.206Z,1000.70
2019-02-04T08:18:48.288Z,1000.73
2019-02-04T08:19:48.447Z,1000.73
2019-02-04T08:20:48.622Z,1000.77
2019-02-04T08:21:59.101Z,1000.78
2019-02-04T08:22:51.182Z,1000.76
2019-02-04T08:23:51.290Z,1000.77
2019-02-04T08:24:51.544Z,1000.75
2019-02-04T08:25:52.133Z,1000.74
2019-02-04T08:26:51.635Z,1000.77
2019-02-04T08:27:49.913Z,1000.79
2019-02-04T08:28:50.003Z,1000.79
2019-02-04T08:29:49.919Z,1000.78
2019-02-04T08:30:50.126Z,1000.77
2019-02-04T08:31:50.213Z,1000.82
2019-02-04T08:32:50.423Z,1000.83
2019-02-04T08:33:50.672Z,1000.83
2019-02-04T08:34:50.798Z,1000.85
2019-02-04T08:35:50.951Z,1000.78
2019-02-04T08:36:51.174Z,1000.86
2019-02-04T08:37:51.278Z,1000.88
2019-02-04T08:38:51.473Z,1000.84
2019-02-04T08:39:51.651Z,1000.90
2019-02-04T08:40:51.820Z,1000.88
2019-02-04T08:41:51.976Z,1000.93
2019-02-04T08:42:52.054Z,1000.96
2019-02-04T08:43:52.241Z,1000.94
2019-02-04T08:44:52.417Z,1000.97
2019-02-04T08:45:52.551Z,1000.91
2019-02-04T08:46:52.721Z,1000.98
2019-02-04T08:47:52.892Z,1000.98
2019-02-04T08:48:53.049Z,1001.04
2019-02-04T08:49:58.428Z,1001.10
2019-02-04T08:50:53.394Z,1001.25
2019-02-04T08:51:53.550Z,1001.44
2019-02-04T08:52:53.732Z,1001.68
2019-02-04T08:53:53.868Z,1002.13
2019-02-04T08:54:54.027Z,1002.63
2019-02-04T08:55:54.304Z,1004.03
2019-02-04T08:56:54.306Z,1004.41
2019-02-04T08:57:54.485Z,1003.12
2019-02-04T08:58:54.716Z,1002.33
2019-02-04T08:59:54.769Z,1001.82
2019-02-04T09:00:55.036Z,1001.49
2019-02-04T09:01:55.177Z,1001.37
2019-02-04T09:02:55.380Z,1001.20
2019-02-04T09:03:55.443Z,1001.19
2019-02-04T09:04:55.637Z,1001.18
2019-02-04T09:05:55.800Z,1001.12
2019-02-04T09:06:55.957Z,1001.05
2019-02-04T09:07:56.120Z,1001.02
2019-02-04T09:08:56.307Z,1001.10
2019-02-04T09:09:56.468Z,1001.09
2019-02-04T09:10:56.632Z,1001.00
2019-02-04T09:11:56.818Z,1000.97
2019-02-04T09:12:56.976Z,1000.96
2019-02-04T09:13:57.076Z,1000.93
2019-02-04T09:14:57.315Z,1000.93
2019-02-04T09:15:57.524Z,1000.94
2019-02-04T09:16:57.651Z,1000.99
2019-02-04T09:17:57.854Z,1000.98
2019-02-04T09:18:57.981Z,1000.97
2019-02-04T09:20:09.415Z,1001.00
2019-02-04T09:20:58.358Z,1001.05
2019-02-04T09:21:58.444Z,1001.03
2019-02-04T09:22:58.739Z,1001.06
2019-02-04T09:23:58.866Z,1001.06
2019-02-04T09:24:59.083Z,1001.08
2019-02-04T09:25:59.260Z,1001.08
2019-02-04T09:26:59.390Z,1001.10
2019-02-04T09:27:59.510Z,1001.16
2019-02-04T09:28:59.688Z,1001.13
2019-02-04T09:29:59.907Z,1001.13
2019-02-04T09:31:00.006Z,1001.06
2019-02-04T09:32:00.165Z,1001.09
2019-02-04T09:33:00.491Z,1001.11
2019-02-04T09:34:00.474Z,1001.08
2019-02-04T09:35:00.704Z,1001.09
2019-02-04T09:36:00.884Z,1001.04
2019-02-04T09:37:01.050Z,1001.08
2019-02-04T09:38:01.122Z,1001.06
2019-02-04T09:39:01.355Z,1001.04
2019-02-04T09:40:01.487Z,1001.05
2019-02-04T09:41:01.693Z,1001.02
2019-02-04T09:42:01.824Z,1000.95
2019-02-04T09:43:01.974Z,1000.94
2019-02-04T09:44:02.146Z,1000.99
2019-02-04T09:45:02.281Z,1001.01
2019-02-04T09:46:02.405Z,1001.02
2019-02-04T09:47:02.687Z,1001.06
2019-02-04T09:48:02.804Z,1001.13
2019-02-04T09:49:02.921Z,1001.06
2019-02-04T09:50:03.195Z,1001.11
2019-02-04T09:51:03.329Z,1001.10
2019-02-04T09:52:03.494Z,1001.09
2019-02-04T09:53:03.678Z,1001.19
2019-02-04T09:54:03.839Z,1001.49
2019-02-04T09:55:04.137Z,1001.67
2019-02-04T09:56:04.199Z,1001.87
2019-02-04T09:57:04.369Z,1001.98
2019-02-04T09:58:04.589Z,1002.13
2019-02-04T09:59:04.658Z,1002.19
2019-02-04T10:00:04.817Z,1002.28
2019-02-04T10:01:04.996Z,1002.18
2019-02-04T10:02:05.170Z,1001.99
2019-02-04T10:03:05.288Z,1002.14
2019-02-04T10:04:05.501Z,1002.07
2019-02-04T10:05:06.310Z,1002.20
2019-02-04T10:06:05.892Z,1002.12
2019-02-04T10:07:06.000Z,1002.11
2019-02-04T10:08:06.096Z,1001.96
2019-02-04T10:09:06.293Z,1001.89
2019-02-04T10:10:06.462Z,1002.04
2019-02-04T10:11:06.640Z,1001.43
2019-02-04T10:12:06.848Z,1001.37
2019-02-04T10:13:06.964Z,1001.48
2019-02-04T10:14:07.141Z,1001.57
2019-02-04T10:15:07.302Z,1001.64
2019-02-04T10:16:07.541Z,1001.86
2019-02-04T10:17:07.625Z,1001.86
2019-02-04T10:18:07.853Z,1001.65
2019-02-04T10:19:07.958Z,1002.09
2019-02-04T10:20:08.157Z,1001.36
2019-02-04T10:21:08.334Z,1001.99
2019-02-04T10:22:08.502Z,1002.04
2019-02-04T10:23:08.599Z,1001.47
2019-02-04T10:24:08.835Z,1001.99
2019-02-04T10:25:08.960Z,1002.03
2019-02-04T10:26:09.075Z,1002.08
2019-02-04T10:27:09.287Z,1001.88
2019-02-04T10:28:09.420Z,1002.02
2019-02-04T10:29:09.568Z,1002.03
2019-02-04T10:30:09.765Z,1001.92
2019-02-04T10:31:09.981Z,1002.07
2019-02-04T10:32:10.119Z,1001.95
2019-02-04T10:33:10.232Z,1001.97
2019-02-04T10:34:10.452Z,1001.88
2019-02-04T10:35:17.220Z,1001.86
2019-02-04T10:36:10.739Z,1001.86
2019-02-04T10:37:10.912Z,1001.81
2019-02-04T10:38:11.006Z,1001.82
2019-02-04T10:39:11.243Z,1001.81
2019-02-04T10:40:11.585Z,1001.92
2019-02-04T10:41:11.628Z,1001.81
2019-02-04T10:42:11.733Z,1001.88
2019-02-04T10:43:11.898Z,1002.03
2019-02-04T10:44:12.058Z,1001.95
2019-02-04T10:45:12.165Z,1001.97
2019-02-04T10:46:12.409Z,1001.99
2019-02-04T10:47:12.629Z,1001.91
2019-02-04T10:48:12.717Z,1001.84
2019-02-04T10:49:12.933Z,1001.87
2019-02-04T10:50:13.040Z,1001.82
2019-02-04T10:51:13.260Z,1001.76
2019-02-04T10:52:13.421Z,1001.68
2019-02-04T10:53:13.603Z,1001.64
2019-02-04T10:54:13.839Z,1001.62
2019-02-04T10:55:13.973Z,1001.61
2019-02-04T10:56:16.296Z,1001.58
2019-02-04T10:57:14.248Z,1001.64
2019-02-04T10:58:14.430Z,1001.46
2019-02-04T10:59:14.649Z,1001.25
2019-02-04T11:00:15.486Z,1001.44
2019-02-04T11:01:15.025Z,1001.39
2019-02-04T11:02:15.227Z,1001.43
2019-02-04T11:03:15.359Z,1001.40
2019-02-04T11:04:15.595Z,1001.37
2019-02-04T11:05:15.661Z,1001.26
2019-02-04T11:06:15.849Z,1001.22
2019-02-04T11:07:15.998Z,1001.29
2019-02-04T11:08:16.193Z,1001.26
2019-02-04T11:09:16.298Z,1001.18
2019-02-04T11:10:16.601Z,1001.17
2019-02-04T11:11:16.726Z,1001.16
2019-02-04T11:12:16.913Z,1001.04
2019-02-04T11:13:17.021Z,1001.04
2019-02-04T11:14:17.158Z,1001.06
2019-02-04T11:15:17.408Z,1001.05
2019-02-04T11:16:17.469Z,1000.90
2019-02-04T11:17:17.642Z,1000.76
2019-02-04T11:18:17.769Z,1000.57
2019-02-04T11:19:18.968Z,1000.75
2019-02-04T11:20:18.101Z,1000.73
2019-02-04T11:21:18.351Z,1000.27
2019-02-04T11:22:18.500Z,1000.39
2019-02-04T11:23:18.690Z,1000.38
2019-02-04T11:24:18.923Z,1000.57
2019-02-04T11:25:18.955Z,1000.57
2019-02-04T11:26:19.196Z,1000.45
2019-02-04T11:27:19.339Z,1000.41
2019-02-04T11:28:19.591Z,1000.34
2019-02-04T11:29:19.740Z,1000.29
2019-02-04T11:30:19.820Z,1000.29
2019-02-04T11:31:20.015Z,1000.25
2019-02-04T11:32:20.163Z,1000.23
2019-02-04T11:33:20.382Z,1000.17
2019-02-04T11:34:20.502Z,1000.14
2019-02-04T11:35:20.777Z,1000.19
2019-02-04T11:36:20.894Z,1000.06
2019-02-04T11:37:21.068Z,1000.01
2019-02-04T11:38:21.201Z,1000.03
2019-02-04T11:39:21.377Z,1000.14
2019-02-04T11:40:21.531Z,1000.17
2019-02-04T11:41:21.813Z,1000.02
2019-02-04T11:42:21.895Z,1000.10
2019-02-04T11:43:22.120Z,1000.11
2019-02-04T11:44:22.422Z,1000.12
2019-02-04T11:45:22.383Z,1000.14
2019-02-04T11:46:22.574Z,1000.07
2019-02-04T11:47:23.572Z,1000.11
2019-02-04T11:48:22.910Z,1000.11
2019-02-04T11:49:23.003Z,1000.10
2019-02-04T11:50:23.216Z,1000.07
2019-02-04T11:51:23.365Z,1000.08
2019-02-04T11:52:23.579Z,1000.01
2019-02-04T11:53:32.587Z,1000.04
2019-02-04T11:54:24.024Z,1000.01
2019-02-04T11:55:24.058Z,1000.01
2019-02-04T11:56:24.177Z,999.96
2019-02-04T11:57:24.439Z,999.98
2019-02-04T11:58:24.615Z,999.94
2019-02-04T11:59:24.759Z,999.96
2019-02-04T12:00:24.940Z,999.89
2019-02-04T12:01:25.111Z,999.89
2019-02-04T12:02:34.386Z,999.92
2019-02-04T12:03:25.414Z,999.97
2019-02-04T12:04:25.576Z,999.99
2019-02-04T12:05:26.348Z,999.94
2019-02-04T12:06:25.933Z,999.92
2019-02-04T12:07:26.083Z,999.96
2019-02-04T12:08:26.223Z,999.85
2019-02-04T12:09:26.420Z,999.81
2019-02-04T12:10:26.609Z,999.81
2019-02-04T12:11:26.788Z,999.81
2019-02-04T12:12:26.989Z,999.83
2019-02-04T12:13:27.040Z,999.82
2019-02-04T12:14:27.283Z,999.78
2019-02-04T12:15:27.393Z,999.78
2019-02-04T12:16:27.691Z,999.71
2019-02-04T12:17:27.812Z,999.74
2019-02-04T12:18:28.799Z,999.76
2019-02-04T12:19:29.540Z,999.73
2019-02-04T12:20:29.112Z,999.74
2019-02-04T12:41:14.889Z,999.50
2019-02-04T12:42:14.456Z,999.48
2019-02-04T12:44:15.829Z,999.48
2019-02-04T12:45:15.302Z,999.45
2019-02-04T12:46:13.468Z,999.52
2019-02-04T12:47:14.130Z,999.55
2019-02-04T12:48:13.379Z,999.59
2019-02-04T12:49:13.552Z,999.53
2019-02-04T12:50:13.772Z,999.55
2019-02-04T12:51:13.969Z,999.59
2019-02-04T12:52:14.117Z,999.54
2019-02-04T12:53:14.283Z,999.58
2019-02-04T12:54:14.523Z,999.53
2019-02-04T12:55:14.629Z,999.57
2019-02-04T12:56:14.855Z,999.54
2019-02-04T12:57:15.082Z,999.56
2019-02-04T12:58:15.130Z,999.57
2019-02-04T12:59:15.323Z,999.47
2019-02-04T13:00:15.511Z,999.46
2019-02-04T13:01:15.713Z,999.44
2019-02-04T13:02:15.899Z,999.44
2019-02-04T13:03:16.118Z,999.52
2019-02-04T13:04:16.232Z,999.45
2019-02-04T13:05:17.130Z,999.45
2019-02-04T13:06:16.521Z,999.44
2019-02-04T13:07:16.684Z,999.41
2019-02-04T13:08:16.920Z,999.46
2019-02-04T13:09:16.996Z,999.50
2019-02-04T13:10:17.183Z,999.39
2019-02-04T13:11:17.333Z,999.33
2019-02-04T13:12:17.533Z,999.55
2019-02-04T13:13:17.652Z,999.34
2019-02-04T13:14:17.798Z,999.40
2019-02-04T13:15:17.973Z,999.38
2019-02-04T13:16:18.118Z,999.47
2019-02-04T13:17:18.270Z,999.39
2019-02-04T13:18:18.538Z,999.29
2019-02-04T13:19:18.671Z,999.30
2019-02-04T13:20:18.839Z,999.23
2019-02-04T13:21:19.024Z,999.24
2019-02-04T13:22:19.175Z,999.21
2019-02-04T13:23:19.318Z,999.22
2019-02-04T13:24:19.510Z,999.14
2019-02-04T13:25:19.642Z,999.13
2019-02-04T13:26:19.744Z,999.08
2019-02-04T13:27:19.910Z,999.17
2019-02-04T13:28:20.159Z,999.22
2019-02-04T13:29:20.237Z,999.17
2019-02-04T13:30:20.448Z,999.13
2019-02-04T13:31:20.616Z,999.15
2019-02-04T13:32:20.770Z,999.14
2019-02-04T13:33:20.938Z,999.13
2019-02-04T13:34:21.114Z,999.11
2019-02-04T13:35:21.242Z,999.09
2019-02-04T13:36:21.493Z,999.14
2019-02-04T13:37:21.584Z,999.13
2019-02-04T13:38:21.679Z,999.18
2019-02-04T13:39:21.903Z,999.18
2019-02-04T13:40:22.055Z,999.12
2019-02-04T13:41:22.253Z,999.13
2019-02-04T13:42:22.391Z,999.14
2019-02-04T13:43:22.552Z,999.14
2019-02-04T13:44:22.741Z,999.11
2019-02-04T13:45:22.841Z,999.15
2019-02-04T13:46:23.025Z,999.12
2019-02-04T13:47:23.225Z,999.14
2019-02-04T13:48:23.387Z,999.13
2019-02-04T13:49:23.556Z,999.26
2019-02-04T13:50:23.735Z,999.22
2019-02-04T13:51:23.977Z,999.20
2019-02-04T13:52:24.017Z,999.14
2019-02-04T13:53:26.871Z,999.10
2019-02-04T13:54:24.375Z,999.10
2019-02-04T13:55:24.519Z,999.13
2019-02-04T13:56:24.664Z,999.18
2019-02-04T13:57:24.856Z,999.19
2019-02-04T13:58:25.043Z,999.06
2019-02-04T13:59:25.187Z,999.06
2019-02-04T14:00:27.133Z,999.14
2019-02-04T14:01:25.487Z,999.06
2019-02-04T14:02:25.656Z,999.05
2019-02-04T14:03:25.866Z,999.11
2019-02-04T14:04:26.016Z,999.02
2019-02-04T14:05:26.166Z,999.02
2019-02-04T14:06:26.360Z,999.00
2019-02-04T14:07:26.513Z,998.94
2019-02-04T14:08:26.681Z,999.00
2019-02-04T14:09:26.806Z,999.00
2019-02-04T14:10:26.942Z,998.97
2019-02-04T14:11:27.180Z,998.95
2019-02-04T14:12:27.332Z,998.85
2019-02-04T14:13:27.537Z,998.92
2019-02-04T14:14:27.674Z,998.93
2019-02-04T14:15:27.839Z,998.91
2019-02-04T14:16:27.946Z,998.89
2019-02-04T14:17:28.168Z,998.95
2019-02-04T14:18:28.310Z,998.93
2019-02-04T14:19:28.479Z,998.88
2019-02-04T14:20:28.691Z,998.84
2019-02-04T14:21:28.859Z,998.78
2019-02-04T14:22:28.974Z,998.86
2019-02-04T14:23:29.138Z,998.84
2019-02-04T14:24:29.261Z,998.71
2019-02-04T14:25:30.129Z,998.76
2019-02-04T14:26:30.515Z,998.75
2019-02-04T14:27:29.713Z,998.76
2019-02-04T14:28:31.441Z,998.80
2019-02-04T14:29:30.072Z,998.71
2019-02-04T14:30:30.238Z,998.75
2019-02-04T14:31:30.360Z,998.75
2019-02-04T14:32:30.545Z,998.75
2019-02-04T14:33:30.760Z,998.81
2019-02-04T14:34:30.926Z,998.68
2019-02-04T14:35:31.053Z,998.73
2019-02-04T14:36:34.388Z,998.78
2019-02-04T14:37:32.132Z,998.79
2019-02-04T14:38:31.497Z,998.84
2019-02-04T14:39:32.232Z,998.82
2019-02-04T14:40:31.737Z,998.74
2019-02-04T14:41:31.928Z,998.75
2019-02-04T14:42:32.128Z,998.74
2019-02-04T14:43:32.255Z,998.78
2019-02-04T14:44:32.473Z,998.69
2019-02-04T14:45:32.677Z,998.74
2019-02-04T14:46:32.816Z,998.73
2019-02-04T14:47:32.958Z,998.67
2019-02-04T14:48:33.277Z,998.68
2019-02-04T14:49:33.296Z,998.62
2019-02-04T14:50:33.567Z,998.66
2019-02-04T14:51:33.590Z,998.60
2019-02-04T14:52:33.807Z,998.54
2019-02-04T14:53:33.970Z,998.59
2019-02-04T14:54:37.997Z,998.61
2019-02-04T14:55:34.372Z,998.58
2019-02-04T14:56:34.635Z,998.50
2019-02-04T14:57:34.717Z,998.54
2019-02-04T14:58:35.027Z,998.55
2019-02-04T14:59:35.020Z,998.54
2019-02-04T15:00:35.203Z,998.50
2019-02-04T15:01:35.273Z,998.51
2019-02-04T15:02:35.529Z,998.49
2019-02-04T15:03:35.675Z,998.49
2019-02-04T15:04:35.797Z,998.51
2019-02-04T15:05:36.040Z,998.53
2019-02-04T15:06:36.171Z,998.53
2019-02-04T15:07:36.370Z,998.51
2019-02-04T15:08:36.677Z,998.46
2019-02-04T15:09:36.817Z,998.55
2019-02-04T15:10:36.871Z,998.61
2019-02-04T15:11:37.074Z,998.52
2019-02-04T15:12:37.330Z,998.47
2019-02-04T15:13:38.065Z,998.52
2019-02-04T15:14:37.410Z,998.49
2019-02-04T15:15:37.485Z,998.52
2019-02-04T15:16:37.925Z,998.50
2019-02-04T15:17:37.876Z,998.51
2019-02-04T15:18:38.019Z,998.54
2019-02-04T15:19:38.252Z,998.47
2019-02-04T15:20:38.456Z,998.47
2019-02-04T15:21:38.680Z,998.48
2019-02-04T15:22:38.963Z,998.46
2019-02-04T15:23:41.334Z,998.43
2019-02-04T15:24:40.829Z,998.48
2019-02-04T15:25:41.753Z,998.50
2019-02-04T15:26:53.819Z,998.45
2019-02-04T15:27:43.787Z,998.45
2019-02-04T15:28:42.068Z,998.42
2019-02-04T15:29:46.807Z,998.45
2019-02-04T15:30:42.148Z,998.41
2019-02-04T15:31:44.891Z,998.43
2019-02-04T15:32:45.058Z,998.43
2019-02-04T15:33:43.404Z,998.41
2019-02-04T15:34:45.397Z,998.38
2019-02-04T15:35:43.782Z,998.43
2019-02-04T15:36:43.390Z,998.40
2019-02-04T15:37:43.807Z,998.37
2019-02-04T15:38:41.686Z,998.39
2019-02-04T15:39:41.663Z,998.35
2019-02-04T15:40:41.768Z,998.33
2019-02-04T15:41:41.932Z,998.34
2019-02-04T15:42:42.306Z,998.31
2019-02-04T15:43:42.291Z,998.27
2019-02-04T15:44:42.365Z,998.27
2019-02-04T15:45:42.724Z,998.28
2019-02-04T15:46:42.791Z,998.27
2019-02-04T15:47:42.998Z,998.21
2019-02-04T15:48:43.114Z,998.23
2019-02-04T15:49:50.445Z,998.22
2019-02-04T15:50:43.422Z,998.23
2019-02-04T15:51:43.533Z,998.18
2019-02-04T15:52:45.550Z,998.14
2019-02-04T15:53:43.899Z,998.18
2019-02-04T15:54:44.093Z,998.17
2019-02-04T15:55:44.204Z,998.14
2019-02-04T15:56:44.430Z,998.15
2019-02-04T15:57:44.592Z,998.16
2019-02-04T15:58:44.699Z,998.16
2019-02-04T15:59:44.900Z,998.17
2019-02-04T16:00:44.994Z,998.16
2019-02-04T16:01:45.229Z,998.18
2019-02-04T16:02:45.428Z,998.18
2019-02-04T16:03:45.564Z,998.15
2019-02-04T16:04:45.793Z,998.15
2019-02-04T16:05:45.951Z,998.15
2019-02-04T16:06:46.083Z,998.17
2019-02-04T16:07:46.305Z,998.13
2019-02-04T16:08:46.493Z,998.16
2019-02-04T16:09:46.661Z,998.16
2019-02-04T16:10:46.757Z,998.19
2019-02-04T16:11:46.847Z,998.12
2019-02-04T16:12:47.870Z,998.13
2019-02-04T16:13:47.270Z,998.15
2019-02-04T16:14:47.427Z,998.13
2019-02-04T16:15:47.658Z,998.15
2019-02-04T16:16:48.002Z,998.14
2019-02-04T16:17:48.566Z,998.16
2019-02-04T16:18:48.218Z,998.13
2019-02-04T16:19:48.627Z,998.13
2019-02-04T16:20:48.670Z,998.15
2019-02-04T16:21:49.588Z,998.11
2019-02-04T16:22:57.771Z,998.15
2019-02-04T16:23:51.565Z,998.14
2019-02-04T16:24:52.602Z,998.15
2019-02-04T16:25:51.284Z,998.21
2019-02-04T16:26:55.567Z,998.16
2019-02-04T16:27:50.041Z,998.13
2019-02-04T16:28:50.160Z,998.18
2019-02-04T16:29:50.154Z,998.18
2019-02-04T16:30:50.481Z,998.19
2019-02-04T16:31:50.793Z,998.17
2019-02-04T16:32:52.831Z,998.19
2019-02-04T16:33:50.913Z,998.15
2019-02-04T16:34:51.261Z,998.16
2019-02-04T16:35:51.474Z,998.16
2019-02-04T16:36:51.569Z,998.09
2019-02-04T16:37:51.755Z,998.12
2019-02-04T16:38:51.860Z,998.15
2019-02-04T16:39:52.157Z,998.15